Time;durP1;ratioP1;P1;durP2;ratioP2;P2;SDS_P1;SDS_P2;PMS_P1;PMS_P2;Temp;Humidity;BMP_temperature;BMP_pressure;BME280_temperature;BME280_humidity;BME280_pressure;Samples;Min_cycle;Max_cycle;Signal;HPM_P1;HPM_P2
2022/04/25 00:00:54;;;;;;;;;;;20.70;48.10;;;;;;5094485;28;19924;-45
2022/04/25 00:03:21;;;;;;;;;;;20.70;48.20;;;;;;5094162;28;19928;-45
2022/04/25 00:05:48;;;;;;;;;;;20.70;48.10;;;;;;5094599;28;20030;-45
2022/04/25 00:08:15;;;;;;;;;;;20.70;48.10;;;;;;5093706;28;20391;-46
2022/04/25 00:10:42;;;;;;;;;;;20.70;48.10;;;;;;5074192;28;20322;-49
2022/04/25 00:13:09;;;;;;;;;;;20.70;48.10;;;;;;5073938;28;19931;-49
2022/04/25 00:15:36;;;;;;;;;;;20.70;48.10;;;;;;5074047;28;19924;-45
2022/04/25 00:18:03;;;;;;;;;;;20.70;48.10;;;;;;5092764;28;19926;-45
2022/04/25 00:20:30;;;;;;;;;;;20.70;48.10;;;;;;5093898;28;19928;-50
2022/04/25 00:23:00;;;;;;;;;;;20.70;48.10;;;;;;5076149;28;19924;-44
2022/04/25 00:25:28;;;;;;;;;;;20.70;48.10;;;;;;5093868;28;19924;-45
2022/04/25 00:27:55;;;;;;;;;;;20.70;48.10;;;;;;5093783;28;19924;-50
2022/04/25 00:30:22;;;;;;;;;;;20.70;48.10;;;;;;5093898;28;19924;-45
2022/04/25 00:32:49;;;;;;;;;;;20.70;48.10;;;;;;5093721;28;19938;-44
2022/04/25 00:35:16;;;;;;;;;;;20.70;48.10;;;;;;5093758;28;19924;-44
2022/04/25 00:37:43;;;;;;;;;;;20.70;48.10;;;;;;5093751;28;20402;-50
2022/04/25 00:40:11;;;;;;;;;;;20.70;48.10;;;;;;5093813;28;20299;-52
2022/04/25 00:42:38;;;;;;;;;;;20.70;48.10;;;;;;5093772;28;19931;-45
2022/04/25 00:45:05;;;;;;;;;;;20.70;48.70;;;;;;5093760;28;20272;-45
2022/04/25 00:47:32;;;;;;;;;;;20.70;48.10;;;;;;5093830;28;19974;-44
2022/04/25 00:49:59;;;;;;;;;;;20.70;48.10;;;;;;5093407;28;19982;-48
2022/04/25 00:52:26;;;;;;;;;;;20.70;48.10;;;;;;5093665;28;20290;-44
2022/04/25 00:54:53;;;;;;;;;;;20.70;48.10;;;;;;5075767;28;19925;-47
2022/04/25 00:57:20;;;;;;;;;;;20.70;48.10;;;;;;5093313;28;19931;-45
2022/04/25 00:59:48;;;;;;;;;;;20.70;48.10;;;;;;5093835;28;19931;-49
2022/04/25 01:02:15;;;;;;;;;;;20.70;48.10;;;;;;5092935;28;19973;-45
2022/04/25 01:04:43;;;;;;;;;;;20.70;48.10;;;;;;5075610;28;19924;-47
2022/04/25 01:07:10;;;;;;;;;;;20.70;48.10;;;;;;5093190;28;19939;-44
2022/04/25 01:09:38;;;;;;;;;;;20.70;48.10;;;;;;5081375;28;19925;-45
2022/04/25 01:12:05;;;;;;;;;;;20.70;48.70;;;;;;5073747;28;19928;-45
2022/04/25 01:14:32;;;;;;;;;;;20.70;48.10;;;;;;5075492;28;19928;-45
2022/04/25 01:17:00;;;;;;;;;;;20.70;48.10;;;;;;5092848;28;20404;-45
2022/04/25 01:19:27;;;;;;;;;;;20.70;48.10;;;;;;5093235;28;19924;-45
2022/04/25 01:21:56;;;;;;;;;;;20.70;48.10;;;;;;5075452;28;20288;-47
2022/04/25 01:27:18;;;;;;;;;;;20.70;48.10;;;;;;5093397;28;19928;-46
2022/04/25 01:29:47;;;;;;;;;;;20.60;48.00;;;;;;5093441;28;19946;-45
2022/04/25 01:32:15;;;;;;;;;;;20.70;48.10;;;;;;5092999;28;19931;-46
2022/04/25 01:34:42;;;;;;;;;;;20.70;48.10;;;;;;5092928;28;19924;-45
2022/04/25 01:37:11;;;;;;;;;;;20.70;48.10;;;;;;5092954;28;19973;-45
2022/04/25 01:39:39;;;;;;;;;;;20.60;48.00;;;;;;5093034;28;19928;-45
2022/04/25 01:42:07;;;;;;;;;;;20.70;48.10;;;;;;5092877;28;19931;-44
2022/04/25 01:44:35;;;;;;;;;;;20.70;48.10;;;;;;5093329;28;19932;-46
2022/04/25 01:47:03;;;;;;;;;;;20.70;48.10;;;;;;5092879;28;19924;-44
2022/04/25 01:49:31;;;;;;;;;;;20.70;48.10;;;;;;5092965;28;20378;-45
2022/04/25 01:52:00;;;;;;;;;;;20.70;48.10;;;;;;5092828;28;20379;-45
2022/04/25 01:54:27;;;;;;;;;;;20.70;48.10;;;;;;5093109;28;19928;-45
2022/04/25 01:56:55;;;;;;;;;;;20.70;48.10;;;;;;5093159;28;19993;-45
2022/04/25 01:59:22;;;;;;;;;;;20.70;48.10;;;;;;5093072;28;19977;-44
2022/04/25 02:01:50;;;;;;;;;;;20.70;48.20;;;;;;5092805;28;20391;-46
2022/04/25 02:04:18;;;;;;;;;;;20.70;48.10;;;;;;5092696;28;19930;-44
2022/04/25 02:06:45;;;;;;;;;;;20.70;48.10;;;;;;5093240;28;20281;-44
2022/04/25 02:09:12;;;;;;;;;;;20.70;48.10;;;;;;5092290;28;19925;-44
2022/04/25 02:11:39;;;;;;;;;;;20.70;48.10;;;;;;5094799;28;19924;-45
2022/04/25 02:14:06;;;;;;;;;;;20.70;48.10;;;;;;5096740;28;19924;-47
2022/04/25 02:16:33;;;;;;;;;;;20.70;48.10;;;;;;5096517;28;19931;-44
2022/04/25 02:19:00;;;;;;;;;;;20.70;48.20;;;;;;5096757;28;19969;-45
2022/04/25 02:21:27;;;;;;;;;;;20.70;48.20;;;;;;5095904;28;19924;-44
2022/04/25 02:23:54;;;;;;;;;;;20.70;48.10;;;;;;5096258;28;19931;-45
2022/04/25 02:26:21;;;;;;;;;;;20.70;48.10;;;;;;5096078;28;19946;-48
2022/04/25 02:28:48;;;;;;;;;;;20.70;48.10;;;;;;5096740;28;19930;-52
2022/04/25 02:31:16;;;;;;;;;;;20.70;48.10;;;;;;5077637;28;20152;-49
2022/04/25 02:33:44;;;;;;;;;;;20.70;48.10;;;;;;5096128;28;19946;-52
2022/04/25 02:36:13;;;;;;;;;;;20.70;48.10;;;;;;5095962;28;19934;-50
2022/04/25 02:38:40;;;;;;;;;;;20.70;48.10;;;;;;5095991;28;19928;-49
2022/04/25 02:41:09;;;;;;;;;;;20.70;48.10;;;;;;5095760;28;19924;-49
2022/04/25 02:43:37;;;;;;;;;;;20.70;48.10;;;;;;5095877;28;19928;-52
2022/04/25 02:46:06;;;;;;;;;;;20.70;48.10;;;;;;5095706;28;20396;-48
2022/04/25 02:48:34;;;;;;;;;;;20.70;48.10;;;;;;5078034;28;19924;-52
2022/04/25 02:51:05;;;;;;;;;;;20.70;48.10;;;;;;5077878;28;19924;-47
2022/04/25 02:53:32;;;;;;;;;;;20.60;48.00;;;;;;5093037;28;20023;-50
2022/04/25 02:56:00;;;;;;;;;;;20.70;48.10;;;;;;5075498;28;19928;-47
2022/04/25 02:58:27;;;;;;;;;;;20.70;48.10;;;;;;5087647;28;19925;-45
2022/04/25 03:00:55;;;;;;;;;;;20.70;48.10;;;;;;5095350;28;19985;-46
2022/04/25 03:03:24;;;;;;;;;;;20.70;48.10;;;;;;5095395;28;19932;-50
2022/04/25 03:05:52;;;;;;;;;;;20.70;48.10;;;;;;5095328;28;19924;-47
2022/04/25 03:08:20;;;;;;;;;;;20.70;48.20;;;;;;5094809;28;19927;-46
2022/04/25 03:10:48;;;;;;;;;;;20.70;48.20;;;;;;5075670;28;20334;-49
2022/04/25 03:13:16;;;;;;;;;;;20.70;48.10;;;;;;5074816;28;19928;-47
2022/04/25 03:15:44;;;;;;;;;;;20.60;48.10;;;;;;5074837;28;19924;-46
2022/04/25 03:18:12;;;;;;;;;;;20.70;48.10;;;;;;5094206;28;19973;-46
2022/04/25 03:20:41;;;;;;;;;;;20.70;48.10;;;;;;5095421;28;20338;-47
2022/04/25 03:23:09;;;;;;;;;;;20.70;48.10;;;;;;5094027;28;19924;-45
2022/04/25 03:25:37;;;;;;;;;;;20.60;48.10;;;;;;5095512;28;19969;-45
2022/04/25 03:28:04;;;;;;;;;;;20.70;48.20;;;;;;5094992;28;19924;-47
2022/04/25 03:30:31;;;;;;;;;;;20.70;48.10;;;;;;5095046;28;19927;-44
2022/04/25 03:32:58;;;;;;;;;;;20.70;48.10;;;;;;5094906;28;19931;-44
2022/04/25 03:35:25;;;;;;;;;;;20.60;48.70;;;;;;5094941;28;19931;-46
2022/04/25 03:37:53;;;;;;;;;;;20.60;48.00;;;;;;5094753;28;19930;-45
2022/04/25 03:40:20;;;;;;;;;;;20.60;48.00;;;;;;5094640;28;19936;-45
2022/04/25 03:42:47;;;;;;;;;;;20.60;48.00;;;;;;5094687;28;19924;-45
2022/04/25 03:45:16;;;;;;;;;;;20.70;48.10;;;;;;5076966;28;19969;-47
2022/04/25 03:47:44;;;;;;;;;;;20.70;48.20;;;;;;5094676;28;19924;-45
2022/04/25 03:50:12;;;;;;;;;;;20.60;48.00;;;;;;5094349;28;19924;-47
2022/04/25 03:52:41;;;;;;;;;;;20.60;48.00;;;;;;5094213;28;20027;-48
2022/04/25 03:57:55;;;;;;;;;;;20.60;48.00;;;;;;5094390;28;19924;-45
2022/04/25 04:00:22;;;;;;;;;;;20.70;48.10;;;;;;5076702;28;19931;-50
2022/04/25 04:02:49;;;;;;;;;;;20.60;48.00;;;;;;5093713;28;19924;-45
2022/04/25 04:05:18;;;;;;;;;;;20.60;48.00;;;;;;5094038;28;19924;-45
2022/04/25 04:07:45;;;;;;;;;;;20.60;48.10;;;;;;5094278;28;19932;-45
2022/04/25 04:10:12;;;;;;;;;;;20.60;48.00;;;;;;5077317;28;19970;-48
2022/04/25 04:12:39;;;;;;;;;;;20.60;48.00;;;;;;5079247;28;19924;-52
2022/04/25 04:15:06;;;;;;;;;;;20.60;48.00;;;;;;5094244;28;19928;-52
2022/04/25 04:17:34;;;;;;;;;;;20.60;48.00;;;;;;5093974;28;19924;-44
2022/04/25 04:20:03;;;;;;;;;;;20.60;48.00;;;;;;5093817;28;19954;-46
2022/04/25 04:22:31;;;;;;;;;;;20.60;48.10;;;;;;5093916;28;19928;-47
2022/04/25 04:25:01;;;;;;;;;;;20.60;48.00;;;;;;5094282;28;19924;-44
2022/04/25 04:27:32;;;;;;;;;;;20.60;48.10;;;;;;5075990;28;19924;-45
2022/04/25 04:30:00;;;;;;;;;;;20.60;48.00;;;;;;5093912;28;19931;-44
2022/04/25 04:32:31;;;;;;;;;;;20.60;48.00;;;;;;5093482;28;19931;-44
2022/04/25 04:34:58;;;;;;;;;;;20.60;48.00;;;;;;5075632;28;19928;-46
2022/04/25 04:37:26;;;;;;;;;;;20.60;48.00;;;;;;5093690;28;20372;-48
2022/04/25 04:42:38;;;;;;;;;;;20.60;48.00;;;;;;5093557;28;20036;-45
2022/04/25 04:45:05;;;;;;;;;;;20.60;48.00;;;;;;5093698;28;19932;-45
2022/04/25 04:47:36;;;;;;;;;;;20.70;48.10;;;;;;5093828;28;19946;-44
2022/04/25 04:50:03;;;;;;;;;;;20.60;48.00;;;;;;5093399;28;19924;-44
2022/04/25 04:52:30;;;;;;;;;;;20.60;48.00;;;;;;5093423;28;19935;-44
2022/04/25 04:54:57;;;;;;;;;;;20.60;48.00;;;;;;5093762;28;19973;-44
2022/04/25 04:57:24;;;;;;;;;;;20.70;48.10;;;;;;5092792;28;19924;-44
2022/04/25 04:59:51;;;;;;;;;;;20.70;48.10;;;;;;5093327;28;19924;-44
2022/04/25 05:02:18;;;;;;;;;;;20.70;48.10;;;;;;5093334;28;19924;-49
2022/04/25 05:04:46;;;;;;;;;;;20.70;48.00;;;;;;5093308;28;20387;-48
2022/04/25 05:07:13;;;;;;;;;;;20.70;48.00;;;;;;5093105;28;19924;-46
2022/04/25 05:09:40;;;;;;;;;;;20.70;48.00;;;;;;5081084;28;19928;-49
2022/04/25 05:12:08;;;;;;;;;;;20.70;48.00;;;;;;5074016;28;20299;-45
2022/04/25 05:14:35;;;;;;;;;;;20.70;48.00;;;;;;5093397;28;19931;-46
2022/04/25 05:17:02;;;;;;;;;;;20.70;48.00;;;;;;5093271;28;19925;-45
2022/04/25 05:19:29;;;;;;;;;;;20.70;48.00;;;;;;5093029;28;19932;-50
2022/04/25 05:21:56;;;;;;;;;;;20.70;48.00;;;;;;5092944;28;19931;-51
2022/04/25 05:24:23;;;;;;;;;;;20.70;47.90;;;;;;5092904;28;19928;-47
2022/04/25 05:26:50;;;;;;;;;;;20.70;47.90;;;;;;5093500;28;19945;-49
2022/04/25 05:29:17;;;;;;;;;;;20.70;47.90;;;;;;5093215;28;19927;-46
2022/04/25 05:31:44;;;;;;;;;;;20.70;47.90;;;;;;5075238;28;19940;-46
2022/04/25 05:34:15;;;;;;;;;;;20.80;48.00;;;;;;5093088;28;19969;-45
2022/04/25 05:36:42;;;;;;;;;;;20.70;47.90;;;;;;5093135;28;20291;-48
2022/04/25 05:39:09;;;;;;;;;;;20.70;47.90;;;;;;5092891;28;19928;-45
2022/04/25 05:41:37;;;;;;;;;;;20.70;47.90;;;;;;5092981;28;20384;-44
2022/04/25 05:44:04;;;;;;;;;;;20.70;48.50;;;;;;5075302;28;20342;-45
2022/04/25 05:46:32;;;;;;;;;;;20.70;47.90;;;;;;5074630;28;19931;-52
2022/04/25 05:51:59;;;;;;;;;;;20.80;48.50;;;;;;5095345;28;20011;-52
2022/04/25 05:54:27;;;;;;;;;;;20.80;47.90;;;;;;5096325;28;19974;-48
2022/04/25 05:56:54;;;;;;;;;;;20.70;47.80;;;;;;5096648;28;19924;-50
2022/04/25 05:59:21;;;;;;;;;;;20.80;47.90;;;;;;5079052;28;19928;-50
2022/04/25 06:01:48;;;;;;;;;;;20.70;47.80;;;;;;5097042;28;19924;-51
2022/04/25 06:04:15;;;;;;;;;;;20.70;47.80;;;;;;5096769;28;19938;-49
2022/04/25 06:06:42;;;;;;;;;;;20.80;47.90;;;;;;5096423;28;19977;-51
2022/04/25 06:09:09;;;;;;;;;;;20.80;47.90;;;;;;5088182;28;19924;-46
2022/04/25 06:11:36;;;;;;;;;;;20.80;47.90;;;;;;5076158;28;19938;-52
2022/04/25 06:14:03;;;;;;;;;;;20.70;47.80;;;;;;5075401;28;20015;-51
2022/04/25 06:16:30;;;;;;;;;;;20.80;47.80;;;;;;5096142;28;19981;-49
2022/04/25 06:18:57;;;;;;;;;;;20.80;47.80;;;;;;5096481;28;20018;-46
2022/04/25 06:21:24;;;;;;;;;;;20.80;47.80;;;;;;5096094;28;19943;-45
2022/04/25 06:23:51;;;;;;;;;;;20.80;47.80;;;;;;5095939;28;20402;-48
2022/04/25 06:26:18;;;;;;;;;;;20.80;47.80;;;;;;5096564;28;20287;-49
2022/04/25 06:28:45;;;;;;;;;;;20.80;47.80;;;;;;5096263;28;20327;-50
2022/04/25 06:31:12;;;;;;;;;;;20.80;47.80;;;;;;5096389;28;19928;-50
2022/04/25 06:33:41;;;;;;;;;;;20.80;47.80;;;;;;5096099;28;19972;-48
2022/04/25 06:36:08;;;;;;;;;;;20.80;47.80;;;;;;5096014;28;19924;-44
2022/04/25 06:38:35;;;;;;;;;;;20.80;47.80;;;;;;5095795;28;19931;-49
2022/04/25 06:41:02;;;;;;;;;;;20.80;47.80;;;;;;5095778;28;20402;-44
2022/04/25 06:43:30;;;;;;;;;;;20.80;47.80;;;;;;5095765;28;20429;-50
2022/04/25 06:45:57;;;;;;;;;;;20.90;47.80;;;;;;5095782;28;19935;-52
2022/04/25 06:48:24;;;;;;;;;;;20.80;47.80;;;;;;5095723;28;19927;-47
2022/04/25 06:50:53;;;;;;;;;;;20.80;47.80;;;;;;5095167;28;19931;-47
2022/04/25 06:53:21;;;;;;;;;;;20.80;47.80;;;;;;5095659;28;19936;-46
2022/04/25 06:55:48;;;;;;;;;;;20.80;47.80;;;;;;5095671;28;20190;-47
2022/04/25 06:58:16;;;;;;;;;;;20.80;47.70;;;;;;5095380;28;19924;-49
2022/04/25 07:00:43;;;;;;;;;;;20.80;47.70;;;;;;5077851;28;19931;-50
2022/04/25 07:03:10;;;;;;;;;;;20.80;47.70;;;;;;5095676;28;19928;-47
2022/04/25 07:05:38;;;;;;;;;;;20.80;47.70;;;;;;5095224;28;19971;-47
2022/04/25 07:08:05;;;;;;;;;;;20.80;47.70;;;;;;5077418;28;20398;-44
2022/04/25 07:10:32;;;;;;;;;;;20.80;47.70;;;;;;5075741;28;19925;-47
2022/04/25 07:13:00;;;;;;;;;;;20.80;47.70;;;;;;5083463;28;19955;-50
2022/04/25 07:15:27;;;;;;;;;;;20.80;47.70;;;;;;5095286;28;19925;-50
2022/04/25 07:17:56;;;;;;;;;;;20.80;47.70;;;;;;5078308;28;20411;-46
2022/04/25 07:20:23;;;;;;;;;;;20.80;47.70;;;;;;5075053;28;20333;-47
2022/04/25 07:31:06;;;;;;;;;;;20.80;47.70;;;;;;5074990;28;20330;-47
2022/04/25 07:33:36;;;;;;;;;;;20.80;47.70;;;;;;5057199;28;19924;-49
2022/04/25 07:36:04;;;;;;;;;;;20.80;47.70;;;;;;5070399;28;19924;-45
2022/04/25 07:38:32;;;;;;;;;;;20.80;48.30;;;;;;5094751;28;20379;-48
2022/04/25 07:41:00;;;;;;;;;;;20.80;47.70;;;;;;5094648;28;19924;-47
2022/04/25 07:43:29;;;;;;;;;;;20.80;47.70;;;;;;5094624;28;19924;-47
2022/04/25 07:45:56;;;;;;;;;;;20.80;47.80;;;;;;5093975;28;19924;-47
2022/04/25 07:48:25;;;;;;;;;;;20.80;47.70;;;;;;5094534;28;19928;-48
2022/04/25 07:50:52;;;;;;;;;;;20.80;47.70;;;;;;5094596;28;19924;-48
2022/04/25 07:53:19;;;;;;;;;;;20.80;47.70;;;;;;5094548;28;20284;-47
2022/04/25 07:55:46;;;;;;;;;;;20.80;47.70;;;;;;5093960;28;19963;-49
2022/04/25 07:58:13;;;;;;;;;;;20.80;47.70;;;;;;5094229;28;20446;-49
2022/04/25 08:00:41;;;;;;;;;;;20.80;47.70;;;;;;5094262;28;19928;-47
2022/04/25 08:03:08;;;;;;;;;;;20.80;47.70;;;;;;5094208;28;20368;-46
2022/04/25 08:05:36;;;;;;;;;;;20.80;47.70;;;;;;5094288;28;19924;-47
2022/04/25 08:08:03;;;;;;;;;;;20.80;47.60;;;;;;5094232;28;19924;-48
2022/04/25 08:10:30;;;;;;;;;;;20.90;47.70;;;;;;5074223;28;19931;-47
2022/04/25 08:18:28;;;;;;;;;;;20.90;47.60;;;;;;5073545;28;19967;-45
2022/04/25 08:20:55;;;;;;;;;;;20.90;47.60;;;;;;5073576;28;20364;-47
2022/04/25 08:23:22;;;;;;;;;;;20.90;47.60;;;;;;5073422;28;19924;-48
2022/04/25 08:25:49;;;;;;;;;;;20.90;47.50;;;;;;5073929;28;19929;-46
2022/04/25 08:28:16;;;;;;;;;;;21.00;47.60;;;;;;5073527;28;19950;-45
2022/04/25 08:30:43;;;;;;;;;;;21.00;47.50;;;;;;5073590;28;19924;-45
2022/04/25 08:33:11;;;;;;;;;;;21.00;47.40;;;;;;5073805;28;20296;-50
2022/04/25 08:35:38;;;;;;;;;;;21.10;47.40;;;;;;5083124;28;19969;-46
2022/04/25 08:38:05;;;;;;;;;;;21.10;47.30;;;;;;5075885;28;19925;-46
2022/04/25 08:40:33;;;;;;;;;;;21.10;47.30;;;;;;5093301;28;19924;-45
2022/04/25 08:43:03;;;;;;;;;;;21.10;47.20;;;;;;5093346;28;19924;-49
2022/04/25 08:45:32;;;;;;;;;;;21.20;47.20;;;;;;5093429;28;19963;-46
2022/04/25 08:48:00;;;;;;;;;;;21.20;47.10;;;;;;5093772;28;19924;-45
2022/04/25 08:50:27;;;;;;;;;;;21.30;47.10;;;;;;5093649;28;20322;-45
2022/04/25 08:52:56;;;;;;;;;;;21.30;47.00;;;;;;5093591;28;20007;-47
2022/04/25 08:55:23;;;;;;;;;;;21.30;46.90;;;;;;5093309;28;19931;-47
2022/04/25 08:57:50;;;;;;;;;;;21.30;46.90;;;;;;5093615;28;19931;-49
2022/04/25 09:00:18;;;;;;;;;;;21.30;46.80;;;;;;5093561;28;19924;-51
2022/04/25 09:02:47;;;;;;;;;;;21.40;46.80;;;;;;5093188;28;19928;-45
2022/04/25 09:05:15;;;;;;;;;;;21.30;46.70;;;;;;5076063;28;20284;-46
2022/04/25 09:07:42;;;;;;;;;;;21.40;46.80;;;;;;5093302;28;19924;-47
2022/04/25 09:10:20;;;;;;;;;;;21.40;46.70;;;;;;5076492;28;19932;-52
2022/04/25 09:12:47;;;;;;;;;;;21.40;46.70;;;;;;5079228;28;19928;-47
2022/04/25 09:15:18;;;;;;;;;;;21.40;46.70;;;;;;5092895;28;20027;-50
2022/04/25 09:17:54;;;;;;;;;;;21.40;46.70;;;;;;5093425;28;19931;-52
2022/04/25 09:20:22;;;;;;;;;;;21.40;46.70;;;;;;5093265;28;20001;-51
2022/04/25 09:22:49;;;;;;;;;;;21.40;46.50;;;;;;5097279;28;20002;-46
2022/04/25 09:25:17;;;;;;;;;;;21.50;46.60;;;;;;5096622;28;19928;-45
2022/04/25 09:28:08;;;;;;;;;;;21.50;46.50;;;;;;5096665;28;20354;-45
2022/04/25 09:30:35;;;;;;;;;;;21.50;46.50;;;;;;5097002;28;19928;-51
2022/04/25 09:33:02;;;;;;;;;;;21.40;46.40;;;;;;5097330;28;20019;-50
2022/04/25 09:35:44;;;;;;;;;;;21.40;46.40;;;;;;5096942;28;20295;-51
2022/04/25 09:38:13;;;;;;;;;;;21.40;46.50;;;;;;5097055;28;19936;-44
2022/04/25 09:40:41;;;;;;;;;;;21.50;46.60;;;;;;5096599;28;19924;-46
2022/04/25 09:43:12;;;;;;;;;;;21.50;46.50;;;;;;5097398;28;20295;-47
2022/04/25 09:45:42;;;;;;;;;;;21.50;46.40;;;;;;5097261;28;19973;-46
2022/04/25 09:48:10;;;;;;;;;;;21.60;46.40;;;;;;5097202;28;19947;-49
2022/04/25 09:50:38;;;;;;;;;;;21.60;46.30;;;;;;5097144;28;19931;-51
2022/04/25 09:53:13;;;;;;;;;;;21.60;46.20;;;;;;5096970;28;19924;-51
2022/04/25 09:55:41;;;;;;;;;;;21.60;46.10;;;;;;5096995;28;20054;-46
2022/04/25 09:58:13;;;;;;;;;;;21.70;46.10;;;;;;5078891;28;19924;-45
2022/04/25 10:00:40;;;;;;;;;;;21.70;46.10;;;;;;5096916;28;20299;-45
2022/04/25 10:03:08;;;;;;;;;;;21.70;46.00;;;;;;5096692;28;19928;-45
2022/04/25 10:05:36;;;;;;;;;;;21.70;46.00;;;;;;5088609;28;19924;-47
2022/04/25 10:08:04;;;;;;;;;;;21.70;46.00;;;;;;5058564;28;20417;-44
2022/04/25 10:10:31;;;;;;;;;;;21.70;46.00;;;;;;5076214;28;19928;-47
2022/04/25 10:13:02;;;;;;;;;;;21.70;46.10;;;;;;5084540;28;19924;-46
2022/04/25 10:15:29;;;;;;;;;;;21.70;46.10;;;;;;5096321;28;19930;-47
2022/04/25 10:17:56;;;;;;;;;;;21.70;46.00;;;;;;5096515;28;19931;-44
2022/04/25 10:20:24;;;;;;;;;;;21.70;46.00;;;;;;5096144;28;20291;-45
2022/04/25 10:22:51;;;;;;;;;;;21.70;45.90;;;;;;5096083;28;20425;-51
2022/04/25 10:25:18;;;;;;;;;;;21.80;46.00;;;;;;5096574;28;20354;-46
2022/04/25 10:27:46;;;;;;;;;;;21.80;45.90;;;;;;5096630;28;19928;-45
2022/04/25 10:30:17;;;;;;;;;;;21.70;45.90;;;;;;5096701;28;19931;-49
2022/04/25 10:32:44;;;;;;;;;;;21.70;45.90;;;;;;5077521;28;19924;-48
2022/04/25 10:35:15;;;;;;;;;;;21.80;46.00;;;;;;5095620;28;19928;-44
2022/04/25 10:37:44;;;;;;;;;;;21.70;45.90;;;;;;5096055;28;19924;-45
2022/04/25 10:40:13;;;;;;;;;;;21.70;45.90;;;;;;5096381;28;19934;-47
2022/04/25 10:45:55;;;;;;;;;;;21.70;46.00;;;;;;5095984;28;19969;-45
2022/04/25 10:48:22;;;;;;;;;;;21.70;46.10;;;;;;5095867;28;19924;-46
2022/04/25 10:51:10;;;;;;;;;;;21.60;46.00;;;;;;5095760;28;19925;-44
2022/04/25 10:53:57;;;;;;;;;;;21.60;46.10;;;;;;5096054;28;20023;-48
2022/04/25 10:56:26;;;;;;;;;;;21.60;46.20;;;;;;5095452;28;19924;-47
2022/04/25 10:59:12;;;;;;;;;;;21.60;46.20;;;;;;5096039;28;20018;-44
2022/04/25 11:01:44;;;;;;;;;;;21.60;46.20;;;;;;5089240;28;19924;-47
2022/04/25 11:04:13;;;;;;;;;;;21.60;46.20;;;;;;5075367;28;20023;-45
2022/04/25 11:06:40;;;;;;;;;;;21.60;46.20;;;;;;5075169;28;20352;-45
2022/04/25 11:09:07;;;;;;;;;;;21.60;46.20;;;;;;5064768;28;19924;-45
2022/04/25 11:11:47;;;;;;;;;;;21.60;46.20;;;;;;5077696;28;19932;-45
2022/04/25 11:14:15;;;;;;;;;;;21.60;46.30;;;;;;5095546;28;19924;-45
2022/04/25 11:16:43;;;;;;;;;;;21.60;46.30;;;;;;5095363;28;19946;-47
2022/04/25 11:19:19;;;;;;;;;;;21.60;46.30;;;;;;5095079;28;19928;-45
2022/04/25 11:21:49;;;;;;;;;;;21.60;46.30;;;;;;5095120;28;20398;-49
2022/04/25 11:24:28;;;;;;;;;;;21.60;46.20;;;;;;5094913;28;20406;-44
2022/04/25 11:26:57;;;;;;;;;;;21.70;46.20;;;;;;5095152;28;19924;-44
2022/04/25 11:29:24;;;;;;;;;;;21.70;46.10;;;;;;5094997;28;19930;-44
2022/04/25 11:31:51;;;;;;;;;;;21.70;46.00;;;;;;5094677;28;19934;-48
2022/04/25 11:34:22;;;;;;;;;;;21.70;45.90;;;;;;5094937;28;19931;-44
2022/04/25 11:36:49;;;;;;;;;;;21.80;46.50;;;;;;5095285;28;20062;-45
2022/04/25 11:42:16;;;;;;;;;;;21.70;45.90;;;;;;5052180;28;20396;-47
2022/04/25 11:44:44;;;;;;;;;;;21.70;46.00;;;;;;5051322;28;20055;-50
2022/04/25 11:47:11;;;;;;;;;;;21.70;46.00;;;;;;5052377;28;20340;-46
2022/04/25 11:49:41;;;;;;;;;;;21.70;46.10;;;;;;5052327;28;19933;-45
2022/04/25 11:52:12;;;;;;;;;;;21.60;46.10;;;;;;5052111;28;20311;-45
2022/04/25 11:54:41;;;;;;;;;;;21.60;46.20;;;;;;5052433;28;19924;-47
2022/04/25 11:57:08;;;;;;;;;;;21.50;46.20;;;;;;5052337;28;20046;-45
2022/04/25 11:59:35;;;;;;;;;;;21.60;46.30;;;;;;5032219;28;19925;-49
2022/04/25 12:02:02;;;;;;;;;;;21.60;46.30;;;;;;5032252;28;20008;-45
2022/04/25 12:04:33;;;;;;;;;;;21.60;46.20;;;;;;5031988;28;19925;-45
2022/04/25 12:07:02;;;;;;;;;;;21.70;46.20;;;;;;5032104;28;19931;-45
2022/04/25 12:15:40;;;;;;;;;;;21.80;45.90;;;;;;5051814;28;19974;-45
2022/04/25 12:18:33;;;;;;;;;;;21.80;45.80;;;;;;5076781;28;19924;-44
2022/04/25 12:21:02;;;;;;;;;;;21.80;45.70;;;;;;5074351;28;19935;-48
2022/04/25 12:23:31;;;;;;;;;;;21.90;45.80;;;;;;5094065;28;19924;-45
2022/04/25 12:26:02;;;;;;;;;;;21.90;45.70;;;;;;5094175;28;20291;-46
2022/04/25 12:28:31;;;;;;;;;;;21.90;45.80;;;;;;5093298;28;19961;-49
2022/04/25 12:31:01;;;;;;;;;;;21.90;45.80;;;;;;5076311;28;19924;-50
2022/04/25 12:33:32;;;;;;;;;;;21.80;45.80;;;;;;5094033;28;19973;-44
2022/04/25 12:36:08;;;;;;;;;;;21.80;45.80;;;;;;5093856;28;19924;-48
2022/04/25 12:38:58;;;;;;;;;;;21.80;45.80;;;;;;5093975;28;19962;-52
2022/04/25 12:41:27;;;;;;;;;;;21.80;45.90;;;;;;5085941;28;20383;-47
2022/04/25 12:43:55;;;;;;;;;;;21.80;46.50;;;;;;5094132;28;20283;-48
2022/04/25 12:46:35;;;;;;;;;;;21.70;45.90;;;;;;5093669;28;19939;-49
2022/04/25 12:49:04;;;;;;;;;;;21.70;45.90;;;;;;5093695;28;19928;-45
2022/04/25 12:51:37;;;;;;;;;;;21.70;46.00;;;;;;5093859;28;19924;-48
2022/04/25 12:54:05;;;;;;;;;;;21.70;46.00;;;;;;5087735;28;19932;-47
2022/04/25 12:56:34;;;;;;;;;;;21.70;46.10;;;;;;5073161;28;19924;-49
2022/04/25 12:59:01;;;;;;;;;;;21.70;46.10;;;;;;5073539;28;19931;-47
2022/04/25 13:01:33;;;;;;;;;;;21.70;46.10;;;;;;5079091;28;19924;-49
2022/04/25 13:04:14;;;;;;;;;;;21.70;46.10;;;;;;5093633;28;20287;-45
2022/04/25 13:06:41;;;;;;;;;;;21.70;46.10;;;;;;5093734;28;20283;-45
2022/04/25 13:09:09;;;;;;;;;;;21.60;46.00;;;;;;5085724;28;20291;-45
2022/04/25 13:11:51;;;;;;;;;;;21.70;46.10;;;;;;5073350;28;20333;-46
2022/04/25 13:14:18;;;;;;;;;;;21.70;46.10;;;;;;5072964;28;20007;-47
2022/04/25 13:16:46;;;;;;;;;;;21.70;46.00;;;;;;5073463;28;20023;-48
2022/04/25 13:19:13;;;;;;;;;;;21.70;46.00;;;;;;5073034;28;19928;-51
2022/04/25 13:21:42;;;;;;;;;;;21.70;46.00;;;;;;5072866;28;19940;-48
2022/04/25 13:24:09;;;;;;;;;;;21.70;46.00;;;;;;5079675;28;19924;-51
2022/04/25 13:26:36;;;;;;;;;;;21.70;46.00;;;;;;5093392;28;19924;-45
2022/04/25 13:29:03;;;;;;;;;;;21.70;46.00;;;;;;5093075;28;19924;-50
2022/04/25 13:31:31;;;;;;;;;;;21.70;46.10;;;;;;5093123;28;19924;-50
2022/04/25 13:33:59;;;;;;;;;;;21.70;46.10;;;;;;5093387;28;19924;-51
2022/04/25 13:36:26;;;;;;;;;;;21.70;46.10;;;;;;5092715;28;19925;-45
2022/04/25 13:38:53;;;;;;;;;;;21.70;46.10;;;;;;5093423;28;20303;-49
2022/04/25 13:41:20;;;;;;;;;;;21.70;46.00;;;;;;5093217;28;19924;-46
2022/04/25 13:43:50;;;;;;;;;;;21.70;46.00;;;;;;5093175;28;19924;-49
2022/04/25 13:46:18;;;;;;;;;;;21.80;46.00;;;;;;5092872;28;19924;-45
2022/04/25 13:48:45;;;;;;;;;;;21.80;46.00;;;;;;5093178;28;19928;-47
2022/04/25 13:51:14;;;;;;;;;;;21.70;46.00;;;;;;5074712;28;20380;-45
2022/04/25 13:53:42;;;;;;;;;;;21.70;46.00;;;;;;5093371;28;19928;-49
2022/04/25 13:56:09;;;;;;;;;;;21.70;46.00;;;;;;5092757;28;19925;-45
2022/04/25 13:58:38;;;;;;;;;;;21.70;46.00;;;;;;5093311;28;19924;-46
2022/04/25 14:01:06;;;;;;;;;;;21.70;46.10;;;;;;5092799;28;19931;-47
2022/04/25 14:03:34;;;;;;;;;;;21.70;46.10;;;;;;5092907;28;20023;-47
2022/04/25 14:06:02;;;;;;;;;;;21.70;46.10;;;;;;5093156;28;19995;-45
2022/04/25 14:08:29;;;;;;;;;;;21.70;46.10;;;;;;5093384;28;19924;-48
2022/04/25 14:10:56;;;;;;;;;;;21.70;46.10;;;;;;5076220;28;19928;-48
2022/04/25 14:13:25;;;;;;;;;;;21.70;46.20;;;;;;5058773;28;19928;-47
2022/04/25 14:15:52;;;;;;;;;;;21.70;46.20;;;;;;5076316;28;19924;-47
2022/04/25 14:18:20;;;;;;;;;;;21.70;46.20;;;;;;5076124;28;19931;-50
2022/04/25 14:20:47;;;;;;;;;;;21.70;46.20;;;;;;5086355;28;19924;-47
2022/04/25 14:23:14;;;;;;;;;;;21.70;46.20;;;;;;5096305;28;19924;-46
2022/04/25 14:25:41;;;;;;;;;;;21.70;46.20;;;;;;5096310;28;20011;-46
2022/04/25 14:28:10;;;;;;;;;;;21.70;46.20;;;;;;5096407;28;19928;-46
2022/04/25 14:30:37;;;;;;;;;;;21.70;46.20;;;;;;5095966;28;19931;-45
2022/04/25 14:33:04;;;;;;;;;;;21.70;46.20;;;;;;5095965;28;19995;-46
2022/04/25 14:35:32;;;;;;;;;;;21.70;46.20;;;;;;5095919;28;19924;-45
2022/04/25 14:37:59;;;;;;;;;;;21.70;46.80;;;;;;5096468;28;20017;-45
2022/04/25 14:40:26;;;;;;;;;;;21.70;46.20;;;;;;5095787;28;19924;-46
2022/04/25 14:42:53;;;;;;;;;;;21.70;46.20;;;;;;5095836;28;19973;-45
2022/04/25 14:45:21;;;;;;;;;;;21.70;46.20;;;;;;5095810;28;19930;-46
2022/04/25 14:47:48;;;;;;;;;;;21.70;46.20;;;;;;5096136;28;19960;-46
2022/04/25 14:55:47;;;;;;;;;;;21.70;46.10;;;;;;5076111;28;19931;-45
2022/04/25 14:58:15;;;;;;;;;;;21.70;46.10;;;;;;5075418;28;19928;-45
2022/04/25 15:00:42;;;;;;;;;;;21.70;46.10;;;;;;5075770;28;19928;-46
2022/04/25 15:03:10;;;;;;;;;;;21.70;46.10;;;;;;5075540;28;19970;-46
2022/04/25 15:05:44;;;;;;;;;;;21.70;46.20;;;;;;5075387;28;19924;-46